Wetterdaten: Woche 23.12.24 - 29.12.24 (KW52)
Datum Zeit Temp. I. Temp. A. Feuchte I. Feuchte A. Luftdruck Regen Wind Richtung Sonnenschein Solar Taupunkt Windchill Windböen
23.12.2024 00:00 21,8 °C 3,4 °C 57 % 87 % 1002,7 hPa 0,0 l/m² 16,1 km/h (3 Bft) SW 0,00 h 0 W/m² 1,4 °C -3,3 °C 23,3 km/h (4 Bft)
23.12.2024 01:00 21,7 °C 3,1 °C 56 % 88 % 1003,3 hPa 0,0 l/m² 18,7 km/h (3 Bft) SW 0,00 h 0 W/m² 1,3 °C -5,0 °C 26,3 km/h (4 Bft)
23.12.2024 02:00 21,6 °C 2,6 °C 56 % 90 % 1003,9 hPa 0,0 l/m² 15,9 km/h (3 Bft) SW 0,00 h 0 W/m² 1,2 °C -4,2 °C 21,7 km/h (4 Bft)
23.12.2024 03:00 21,5 °C 2,3 °C 56 % 89 % 1004,3 hPa 0,0 l/m² 11,6 km/h (2 Bft) SW 0,00 h 0 W/m² 0,7 °C -2,0 °C 16,7 km/h (3 Bft)
23.12.2024 04:00 21,5 °C 1,9 °C 56 % 89 % 1004,7 hPa 0,0 l/m² 12,3 km/h (2 Bft) SW 0,00 h 0 W/m² 0,3 °C -3,0 °C 18,1 km/h (3 Bft)
23.12.2024 05:00 21,4 °C 1,5 °C 55 % 88 % 1005,0 hPa 0,0 l/m² 13,4 km/h (3 Bft) SW 0,00 h 0 W/m² -0,3 °C -4,1 °C 19,0 km/h (3 Bft)
23.12.2024 06:00 21,4 °C 1,2 °C 55 % 88 % 1005,5 hPa 0,0 l/m² 15,4 km/h (3 Bft) SW 0,00 h 0 W/m² -0,6 °C -5,7 °C 21,5 km/h (4 Bft)
23.12.2024 07:00 21,5 °C 0,9 °C 55 % 88 % 1006,1 hPa 0,0 l/m² 11,9 km/h (2 Bft) SW 0,00 h 0 W/m² -0,8 °C -3,7 °C 15,9 km/h (3 Bft)
23.12.2024 08:00 21,6 °C 0,9 °C 55 % 88 % 1007,1 hPa 0,0 l/m² 9,3 km/h (2 Bft) S-SW 0,00 h 21 W/m² -0,8 °C -1,7 °C 12,3 km/h (2 Bft)
23.12.2024 09:00 21,9 °C 2,1 °C 55 % 86 % 1007,7 hPa 0,0 l/m² 10,8 km/h (2 Bft) SW 0,93 h 83 W/m² 0,1 °C -1,5 °C 14,8 km/h (3 Bft)
23.12.2024 10:00 22,1 °C 3,0 °C 53 % 85 % 1008,0 hPa 0,0 l/m² 15,6 km/h (3 Bft) SW 0,83 h 106 W/m² 0,8 °C -3,4 °C 21,3 km/h (4 Bft)
23.12.2024 11:00 21,9 °C 3,3 °C 52 % 86 % 1008,0 hPa 0,0 l/m² 19,2 km/h (3 Bft) SW 0,47 h 50 W/m² 1,2 °C -5,0 °C 26,4 km/h (4 Bft)
23.12.2024 12:00 21,7 °C 3,7 °C 52 % 88 % 1008,1 hPa 0,0 l/m² 17,4 km/h (3 Bft) SW 1,00 h 112 W/m² 1,9 °C -3,6 °C 23,7 km/h (4 Bft)
23.12.2024 13:00 21,7 °C 4,6 °C 52 % 86 % 1008,2 hPa 0,0 l/m² 19,8 km/h (4 Bft) W-SW 0,85 h 108 W/m² 2,4 °C -3,6 °C 25,9 km/h (4 Bft)
23.12.2024 14:00 21,6 °C 4,7 °C 51 % 86 % 1008,4 hPa 0,0 l/m² 16,8 km/h (3 Bft) SW 0,63 h 57 W/m² 2,6 °C -2,0 °C 23,0 km/h (4 Bft)
23.12.2024 15:00 21,5 °C 4,8 °C 52 % 86 % 1009,1 hPa 0,0 l/m² 16,4 km/h (3 Bft) SW 0,00 h 17 W/m² 2,6 °C -1,8 °C 22,3 km/h (4 Bft)
23.12.2024 16:00 21,4 °C 4,7 °C 52 % 86 % 1009,7 hPa 0,0 l/m² 12,9 km/h (3 Bft) W-SW 0,00 h 0 W/m² 2,7 °C -0,0 °C 18,1 km/h (3 Bft)
23.12.2024 17:00 21,4 °C 5,0 °C 53 % 85 % 1010,6 hPa 0,0 l/m² 17,6 km/h (3 Bft) W-SW 0,00 h 0 W/m² 2,7 °C -1,8 °C 24,0 km/h (4 Bft)
23.12.2024 18:00 21,4 °C 5,2 °C 52 % 84 % 1011,4 hPa 0,0 l/m² 19,8 km/h (3 Bft) W 0,00 h 0 W/m² 2,7 °C -2,8 °C 27,0 km/h (4 Bft)
23.12.2024 19:00 21,6 °C 4,9 °C 53 % 83 % 1012,4 hPa 0,0 l/m² 17,8 km/h (3 Bft) W 0,00 h 0 W/m² 2,4 °C -2,2 °C 24,6 km/h (4 Bft)
23.12.2024 20:00 21,8 °C 4,8 °C 54 % 82 % 1013,1 hPa 0,0 l/m² 18,9 km/h (3 Bft) W-NW 0,00 h 0 W/m² 2,1 °C -2,9 °C 26,6 km/h (4 Bft)
23.12.2024 21:00 22,5 °C 4,2 °C 54 % 84 % 1014,1 hPa 0,0 l/m² 17,0 km/h (3 Bft) W 0,00 h 0 W/m² 1,7 °C -2,8 °C 23,9 km/h (4 Bft)
23.12.2024 22:00 22,8 °C 3,7 °C 53 % 85 % 1014,8 hPa 0,0 l/m² 15,9 km/h (3 Bft) W 0,00 h 0 W/m² 1,5 °C -2,8 °C 22,4 km/h (4 Bft)
23.12.2024 23:00 22,5 °C 3,5 °C 53 % 86 % 1015,9 hPa 0,0 l/m² 7,3 km/h (2 Bft) W-NW 0,00 h 0 W/m² 1,4 °C 2,4 °C 13,4 km/h (3 Bft)
24.12.2024 00:00 22,0 °C 3,1 °C 53 % 86 % 1016,7 hPa 0,0 l/m² 11,8 km/h (2 Bft) W 0,00 h 0 W/m² 1,1 °C -1,1 °C 16,8 km/h (3 Bft)
24.12.2024 01:00 21,8 °C 3,0 °C 53 % 87 % 1017,5 hPa 0,0 l/m² 11,0 km/h (2 Bft) W 0,00 h 0 W/m² 1,0 °C -0,8 °C 15,8 km/h (3 Bft)
24.12.2024 02:00 21,7 °C 2,8 °C 53 % 88 % 1018,6 hPa 0,0 l/m² 10,4 km/h (2 Bft) W 0,00 h 0 W/m² 0,9 °C -0,6 °C 15,1 km/h (3 Bft)
24.12.2024 03:00 21,6 °C 2,6 °C 54 % 88 % 1019,4 hPa 0,0 l/m² 9,6 km/h (2 Bft) W 0,00 h 0 W/m² 0,8 °C -0,4 °C 14,8 km/h (3 Bft)
24.12.2024 04:00 21,6 °C 2,7 °C 53 % 88 % 1020,3 hPa 0,0 l/m² 11,7 km/h (2 Bft) W 0,00 h 0 W/m² 1,0 °C -1,5 °C 16,8 km/h (3 Bft)
24.12.2024 05:00 21,5 °C 3,2 °C 53 % 89 % 1021,1 hPa 0,0 l/m² 9,9 km/h (2 Bft) W 0,00 h 0 W/m² 1,6 °C 0,3 °C 14,0 km/h (3 Bft)
24.12.2024 06:00 21,4 °C 3,4 °C 54 % 88 % 1022,0 hPa 0,0 l/m² 11,1 km/h (2 Bft) W-NW 0,00 h 0 W/m² 1,7 °C -0,3 °C 17,0 km/h (3 Bft)
24.12.2024 07:00 21,4 °C 3,3 °C 54 % 88 % 1022,7 hPa 0,0 l/m² 9,9 km/h (2 Bft) W 0,00 h 0 W/m² 1,5 °C 0,4 °C 15,7 km/h (3 Bft)
24.12.2024 08:00 21,5 °C 2,2 °C 54 % 88 % 1023,6 hPa 0,0 l/m² 3,6 km/h (1 Bft) W 0,00 h 15 W/m² 0,4 °C 2,2 °C 5,4 km/h (2 Bft)
24.12.2024 09:00 23,1 °C 1,9 °C 52 % 90 % 1025,1 hPa 0,0 l/m² 0,9 km/h (0 Bft) W-SW 0,78 h 69 W/m² 0,4 °C 1,9 °C 2,1 km/h (1 Bft)
24.12.2024 10:00 23,0 °C 3,9 °C 52 % 87 % 1025,7 hPa 0,0 l/m² 4,3 km/h (1 Bft) W-SW 1,00 h 172 W/m² 1,9 °C 3,7 °C 7,2 km/h (2 Bft)
24.12.2024 11:00 22,7 °C 4,3 °C 52 % 87 % 1025,8 hPa 0,0 l/m² 6,8 km/h (2 Bft) S-SW 1,00 h 134 W/m² 2,3 °C 3,6 °C 9,2 km/h (2 Bft)
24.12.2024 12:00 22,4 °C 5,0 °C 52 % 86 % 1026,0 hPa 0,0 l/m² 7,6 km/h (2 Bft) SW 1,00 h 171 W/m² 2,8 °C 3,8 °C 10,0 km/h (2 Bft)
24.12.2024 13:00 22,2 °C 5,1 °C 53 % 86 % 1026,9 hPa 0,0 l/m² 7,8 km/h (2 Bft) SW 1,00 h 98 W/m² 3,0 °C 3,8 °C 11,0 km/h (2 Bft)
24.12.2024 14:00 22,1 °C 5,3 °C 53 % 86 % 1027,3 hPa 0,0 l/m² 9,7 km/h (2 Bft) SW 1,00 h 102 W/m² 3,1 °C 2,7 °C 13,6 km/h (3 Bft)
24.12.2024 15:00 22,3 °C 5,3 °C 54 % 85 % 1028,0 hPa 0,0 l/m² 6,9 km/h (2 Bft) W-SW 0,17 h 33 W/m² 3,0 °C 4,4 °C 10,0 km/h (2 Bft)
24.12.2024 16:00 22,3 °C 3,4 °C 54 % 88 % 1028,7 hPa 0,0 l/m² 4,3 km/h (1 Bft) W-SW 0,00 h 6 W/m² 1,6 °C 3,3 °C 6,4 km/h (2 Bft)
24.12.2024 17:00 22,1 °C 3,0 °C 54 % 88 % 1029,3 hPa 0,0 l/m² 5,0 km/h (1 Bft) W-SW 0,00 h 0 W/m² 1,3 °C 2,9 °C 7,1 km/h (2 Bft)
24.12.2024 18:00 22,1 °C 2,3 °C 54 % 89 % 1029,7 hPa 0,0 l/m² 0,2 km/h (0 Bft) W 0,00 h 0 W/m² 0,8 °C 2,3 °C 0,5 km/h (0 Bft)
24.12.2024 19:00 22,3 °C 1,7 °C 55 % 90 % 1030,3 hPa 0,0 l/m² 0,0 km/h (0 Bft) W 0,00 h 0 W/m² 0,2 °C 1,7 °C 0,2 km/h (0 Bft)
24.12.2024 20:00 22,6 °C 1,3 °C 54 % 91 % 1030,7 hPa 0,0 l/m² 0,1 km/h (0 Bft) W 0,00 h 0 W/m² 0,0 °C 1,3 °C 0,4 km/h (0 Bft)
24.12.2024 21:00 22,9 °C 1,0 °C 54 % 91 % 1031,1 hPa 0,0 l/m² 0,6 km/h (0 Bft) W 0,00 h 0 W/m² -0,3 °C 1,0 °C 1,1 km/h (1 Bft)
24.12.2024 22:00 22,9 °C 0,5 °C 54 % 91 % 1031,8 hPa 0,0 l/m² 0,4 km/h (0 Bft) W 0,00 h 0 W/m² -0,8 °C 0,5 °C 0,5 km/h (0 Bft)
24.12.2024 23:00 22,4 °C 0,2 °C 53 % 91 % 1032,2 hPa 0,0 l/m² 0,4 km/h (0 Bft) W 0,00 h 0 W/m² -1,0 °C 0,2 °C 0,9 km/h (0 Bft)
25.12.2024 00:00 22,3 °C -0,2 °C 54 % 92 % 1032,2 hPa 0,0 l/m² 0,1 km/h (0 Bft) W 0,00 h 0 W/m² -1,3 °C -0,2 °C 0,5 km/h (0 Bft)
25.12.2024 01:00 22,3 °C -0,0 °C 54 % 92 % 1032,3 hPa 0,0 l/m² 0,8 km/h (0 Bft) W 0,00 h 0 W/m² -1,1 °C -0,0 °C 1,8 km/h (1 Bft)
25.12.2024 02:00 22,2 °C 0,7 °C 54 % 93 % 1032,5 hPa 0,0 l/m² 0,4 km/h (0 Bft) W 0,00 h 0 W/m² -0,3 °C 0,7 °C 1,8 km/h (1 Bft)
25.12.2024 03:00 22,2 °C 1,1 °C 54 % 93 % 1032,7 hPa 0,0 l/m² 0,9 km/h (0 Bft) W 0,00 h 0 W/m² 0,1 °C 1,1 °C 2,3 km/h (1 Bft)
25.12.2024 04:00 22,1 °C 1,7 °C 54 % 92 % 1032,8 hPa 0,0 l/m² 1,4 km/h (1 Bft) S-SO 0,00 h 0 W/m² 0,6 °C 1,7 °C 4,1 km/h (1 Bft)
25.12.2024 05:00 22,1 °C 2,1 °C 53 % 92 % 1032,9 hPa 0,0 l/m² 1,3 km/h (1 Bft) S 0,00 h 0 W/m² 0,9 °C 2,1 °C 3,5 km/h (1 Bft)
25.12.2024 06:00 21,9 °C 1,9 °C 53 % 91 % 1033,1 hPa 0,0 l/m² 1,1 km/h (1 Bft) S-SO 0,00 h 0 W/m² 0,6 °C 1,9 °C 2,4 km/h (1 Bft)
25.12.2024 07:00 21,9 °C 1,6 °C 54 % 91 % 1033,3 hPa 0,0 l/m² 0,3 km/h (0 Bft) S-SO 0,00 h 0 W/m² 0,2 °C 1,6 °C 1,1 km/h (1 Bft)
25.12.2024 08:00 22,2 °C 1,2 °C 57 % 91 % 1034,0 hPa 0,0 l/m² 0,4 km/h (0 Bft) S-SO 0,00 h 15 W/m² -0,1 °C 1,2 °C 1,0 km/h (0 Bft)
25.12.2024 09:00 23,8 °C 2,5 °C 54 % 91 % 1034,7 hPa 0,0 l/m² 0,9 km/h (0 Bft) O 0,75 h 87 W/m² 1,1 °C 2,5 °C 1,8 km/h (1 Bft)
25.12.2024 10:00 23,5 °C 5,8 °C 50 % 87 % 1035,0 hPa 0,0 l/m² 10,2 km/h (2 Bft) SW 1,00 h 211 W/m² 3,7 °C 2,8 °C 14,2 km/h (3 Bft)
25.12.2024 11:00 23,7 °C 6,7 °C 49 % 85 % 1034,8 hPa 0,0 l/m² 9,6 km/h (2 Bft) SW 1,00 h 248 W/m² 4,3 °C 4,3 °C 12,8 km/h (3 Bft)
25.12.2024 12:00 23,7 °C 6,4 °C 53 % 86 % 1035,1 hPa 0,0 l/m² 5,3 km/h (1 Bft) SW 1,00 h 101 W/m² 4,3 °C 6,2 °C 7,6 km/h (2 Bft)
25.12.2024 13:00 23,4 °C 6,9 °C 53 % 88 % 1035,3 hPa 0,0 l/m² 7,4 km/h (2 Bft) S-SW 1,00 h 185 W/m² 5,1 °C 6,0 °C 9,4 km/h (2 Bft)
25.12.2024 14:00 23,0 °C 7,0 °C 50 % 88 % 1035,3 hPa 0,0 l/m² 8,6 km/h (2 Bft) S-SW 0,47 h 62 W/m² 5,1 °C 5,3 °C 10,8 km/h (2 Bft)
25.12.2024 15:00 22,9 °C 6,2 °C 53 % 91 % 1035,4 hPa 0,0 l/m² 8,1 km/h (2 Bft) SW 0,00 h 16 W/m² 4,8 °C 4,7 °C 10,6 km/h (2 Bft)
25.12.2024 16:00 22,9 °C 5,7 °C 55 % 93 % 1035,7 hPa 0,0 l/m² 4,8 km/h (1 Bft) SW 0,00 h 5 W/m² 4,6 °C 5,3 °C 7,0 km/h (2 Bft)
25.12.2024 17:00 22,6 °C 5,5 °C 50 % 94 % 1035,8 hPa 0,0 l/m² 0,4 km/h (0 Bft) SW 0,00 h 0 W/m² 4,6 °C 5,5 °C 1,2 km/h (1 Bft)
25.12.2024 18:00 22,4 °C 5,4 °C 52 % 94 % 1036,1 hPa 0,0 l/m² 2,4 km/h (1 Bft) SW 0,00 h 0 W/m² 4,5 °C 5,4 °C 4,4 km/h (1 Bft)
25.12.2024 19:00 22,8 °C 5,3 °C 54 % 94 % 1036,4 hPa 0,0 l/m² 0,1 km/h (0 Bft) SW 0,00 h 0 W/m² 4,5 °C 5,3 °C 0,3 km/h (0 Bft)
25.12.2024 20:00 23,8 °C 5,4 °C 53 % 94 % 1036,6 hPa 0,0 l/m² 1,1 km/h (0 Bft) SW 0,00 h 0 W/m² 4,6 °C 5,4 °C 2,2 km/h (1 Bft)
25.12.2024 21:00 24,2 °C 5,6 °C 53 % 94 % 1036,6 hPa 0,0 l/m² 3,9 km/h (1 Bft) SW 0,00 h 0 W/m² 4,8 °C 5,5 °C 6,2 km/h (2 Bft)
25.12.2024 22:00 23,4 °C 5,6 °C 52 % 94 % 1036,8 hPa 0,0 l/m² 3,2 km/h (1 Bft) SW 0,00 h 0 W/m² 4,7 °C 5,5 °C 5,2 km/h (1 Bft)
25.12.2024 23:00 22,9 °C 5,5 °C 52 % 94 % 1036,8 hPa 0,0 l/m² 3,9 km/h (1 Bft) S-SW 0,00 h 0 W/m² 4,6 °C 5,4 °C 5,9 km/h (2 Bft)
26.12.2024 00:00 22,7 °C 5,4 °C 53 % 94 % 1036,6 hPa 0,0 l/m² 2,4 km/h (1 Bft) SW 0,00 h 0 W/m² 4,5 °C 5,4 °C 4,5 km/h (1 Bft)
26.12.2024 01:00 22,6 °C 5,4 °C 53 % 95 % 1036,6 hPa 0,0 l/m² 0,1 km/h (0 Bft) SW 0,00 h 0 W/m² 4,6 °C 5,4 °C 0,3 km/h (0 Bft)
26.12.2024 02:00 22,5 °C 5,3 °C 53 % 95 % 1037,2 hPa 0,0 l/m² 0,0 km/h (0 Bft) SW 0,00 h 0 W/m² 4,6 °C 5,3 °C 0,1 km/h (0 Bft)
26.12.2024 03:00 22,3 °C 5,3 °C 53 % 95 % 1037,4 hPa 0,0 l/m² 0,1 km/h (0 Bft) SW 0,00 h 0 W/m² 4,6 °C 5,3 °C 0,5 km/h (0 Bft)
26.12.2024 04:00 22,3 °C 5,3 °C 53 % 95 % 1037,3 hPa 0,0 l/m² 0,0 km/h (0 Bft) SW 0,00 h 0 W/m² 4,6 °C 5,3 °C 0,1 km/h (0 Bft)
26.12.2024 05:00 22,3 °C 5,4 °C 53 % 95 % 1037,3 hPa 0,2 l/m² 0,0 km/h (0 Bft) SW 0,00 h 0 W/m² 4,7 °C 5,4 °C 0,3 km/h (0 Bft)
26.12.2024 06:00 22,3 °C 5,4 °C 53 % 95 % 1037,5 hPa 0,0 l/m² 0,0 km/h (0 Bft) SW 0,00 h 0 W/m² 4,7 °C 5,4 °C 0,0 km/h (0 Bft)
26.12.2024 07:00 22,2 °C 5,4 °C 53 % 95 % 1037,7 hPa 0,0 l/m² 0,4 km/h (0 Bft) SW 0,00 h 0 W/m² 4,7 °C 5,4 °C 1,0 km/h (0 Bft)
26.12.2024 08:00 22,2 °C 5,3 °C 54 % 95 % 1038,0 hPa 0,0 l/m² 0,1 km/h (0 Bft) SW 0,00 h 7 W/m² 4,6 °C 5,3 °C 0,3 km/h (0 Bft)
26.12.2024 09:00 22,4 °C 5,3 °C 55 % 95 % 1038,6 hPa 0,0 l/m² 2,1 km/h (1 Bft) SW 0,00 h 24 W/m² 4,6 °C 5,3 °C 3,7 km/h (1 Bft)
26.12.2024 10:00 22,3 °C 5,5 °C 54 % 95 % 1038,9 hPa 0,0 l/m² 5,5 km/h (2 Bft) S-SW 0,40 h 50 W/m² 4,8 °C 5,1 °C 7,3 km/h (2 Bft)
26.12.2024 11:00 22,3 °C 5,4 °C 53 % 95 % 1038,5 hPa 0,0 l/m² 4,8 km/h (1 Bft) S 0,50 h 52 W/m² 4,6 °C 5,1 °C 7,3 km/h (2 Bft)
26.12.2024 12:00 22,3 °C 5,4 °C 55 % 95 % 1038,4 hPa 0,0 l/m² 4,6 km/h (1 Bft) S 0,00 h 43 W/m² 4,6 °C 5,0 °C 7,1 km/h (2 Bft)
26.12.2024 13:00 22,3 °C 5,2 °C 55 % 95 % 1038,0 hPa 0,0 l/m² 3,4 km/h (1 Bft) S 0,00 h 36 W/m² 4,4 °C 5,0 °C 5,7 km/h (2 Bft)
26.12.2024 14:00 22,3 °C 4,9 °C 54 % 95 % 1037,8 hPa 0,0 l/m² 4,8 km/h (1 Bft) S-SO 0,00 h 26 W/m² 4,2 °C 4,4 °C 7,2 km/h (2 Bft)
26.12.2024 15:00 22,2 °C 4,6 °C 54 % 95 % 1037,8 hPa 0,0 l/m² 3,9 km/h (1 Bft) S-SO 0,00 h 12 W/m² 3,9 °C 4,3 °C 6,1 km/h (2 Bft)
26.12.2024 16:00 22,2 °C 4,3 °C 55 % 95 % 1037,8 hPa 0,0 l/m² 4,2 km/h (1 Bft) S-SO 0,00 h 0 W/m² 3,6 °C 4,3 °C 6,3 km/h (2 Bft)
26.12.2024 17:00 22,1 °C 4,1 °C 55 % 95 % 1037,9 hPa 0,0 l/m² 2,5 km/h (1 Bft) S-SO 0,00 h 0 W/m² 3,4 °C 4,0 °C 4,1 km/h (1 Bft)
26.12.2024 18:00 22,1 °C 4,0 °C 55 % 95 % 1038,1 hPa 0,0 l/m² 3,0 km/h (1 Bft) S-SO 0,00 h 0 W/m² 3,3 °C 4,0 °C 5,2 km/h (1 Bft)
26.12.2024 19:00 22,0 °C 3,9 °C 55 % 95 % 1038,1 hPa 0,0 l/m² 2,2 km/h (1 Bft) S 0,00 h 0 W/m² 3,1 °C 3,8 °C 3,9 km/h (1 Bft)
26.12.2024 20:00 22,3 °C 3,5 °C 54 % 95 % 1038,2 hPa 0,0 l/m² 4,7 km/h (1 Bft) S 0,00 h 0 W/m² 2,8 °C 3,2 °C 6,3 km/h (2 Bft)
26.12.2024 21:00 23,3 °C 3,3 °C 54 % 95 % 1037,9 hPa 0,0 l/m² 1,5 km/h (1 Bft) S 0,00 h 0 W/m² 2,6 °C 3,3 °C 3,0 km/h (1 Bft)
26.12.2024 22:00 23,3 °C 3,1 °C 54 % 95 % 1037,9 hPa 0,0 l/m² 4,0 km/h (1 Bft) S-SO 0,00 h 0 W/m² 2,4 °C 2,9 °C 5,8 km/h (2 Bft)
26.12.2024 23:00 22,8 °C 3,0 °C 52 % 95 % 1037,8 hPa 0,0 l/m² 4,8 km/h (1 Bft) S 0,00 h 0 W/m² 2,2 °C 2,8 °C 7,4 km/h (2 Bft)
27.12.2024 00:00 22,4 °C 2,7 °C 53 % 95 % 1037,5 hPa 0,0 l/m² 4,1 km/h (1 Bft) S 0,00 h 0 W/m² 2,0 °C 2,6 °C 6,3 km/h (2 Bft)
27.12.2024 01:00 22,3 °C 2,2 °C 53 % 95 % 1037,2 hPa 0,0 l/m² 4,7 km/h (1 Bft) S 0,00 h 0 W/m² 1,5 °C 2,1 °C 6,8 km/h (2 Bft)
27.12.2024 02:00 22,2 °C 1,9 °C 53 % 95 % 1037,1 hPa 0,0 l/m² 6,2 km/h (2 Bft) S 0,00 h 0 W/m² 1,2 °C 1,2 °C 8,7 km/h (2 Bft)
27.12.2024 03:00 22,1 °C 1,5 °C 53 % 95 % 1037,0 hPa 0,0 l/m² 7,2 km/h (2 Bft) S-SW 0,00 h 0 W/m² 0,7 °C 0,4 °C 9,4 km/h (2 Bft)
27.12.2024 04:00 22,1 °C 0,8 °C 53 % 95 % 1036,8 hPa 0,0 l/m² 7,0 km/h (2 Bft) S 0,00 h 0 W/m² 0,1 °C -0,1 °C 9,7 km/h (2 Bft)
27.12.2024 05:00 22,0 °C 0,2 °C 53 % 95 % 1036,6 hPa 0,0 l/m² 2,4 km/h (1 Bft) S 0,00 h 0 W/m² -0,5 °C 0,2 °C 5,3 km/h (1 Bft)
27.12.2024 06:00 21,9 °C -0,0 °C 53 % 95 % 1036,6 hPa 0,0 l/m² 1,8 km/h (1 Bft) S 0,00 h 0 W/m² -0,7 °C -0,0 °C 3,2 km/h (1 Bft)
27.12.2024 07:00 21,8 °C -0,1 °C 53 % 95 % 1036,6 hPa 0,0 l/m² 1,5 km/h (1 Bft) S 0,00 h 0 W/m² -0,8 °C -0,1 °C 2,5 km/h (1 Bft)
27.12.2024 08:00 21,9 °C -0,1 °C 54 % 95 % 1036,7 hPa 0,0 l/m² 3,9 km/h (1 Bft) S 0,00 h 12 W/m² -0,8 °C -0,3 °C 6,1 km/h (2 Bft)
27.12.2024 09:00 22,1 °C -0,2 °C 55 % 95 % 1036,8 hPa 0,2 l/m² 1,9 km/h (1 Bft) S 0,02 h 33 W/m² -0,9 °C -0,2 °C 3,3 km/h (1 Bft)
27.12.2024 10:00 22,0 °C 0,1 °C 54 % 95 % 1036,7 hPa 0,0 l/m² 2,0 km/h (1 Bft) S 0,90 h 63 W/m² -0,6 °C 0,1 °C 3,3 km/h (1 Bft)
27.12.2024 11:00 21,8 °C 0,4 °C 52 % 96 % 1036,1 hPa 0,0 l/m² 3,3 km/h (1 Bft) S-SO 1,00 h 89 W/m² -0,2 °C 0,4 °C 5,2 km/h (1 Bft)
27.12.2024 12:00 21,7 °C 0,8 °C 51 % 96 % 1035,5 hPa 0,0 l/m² 5,8 km/h (2 Bft) S-SO 1,00 h 90 W/m² 0,1 °C 0,4 °C 7,9 km/h (2 Bft)
27.12.2024 13:00 21,8 °C 0,9 °C 52 % 96 % 1034,6 hPa 0,0 l/m² 4,9 km/h (1 Bft) S-SO 0,77 h 73 W/m² 0,2 °C 0,6 °C 7,5 km/h (2 Bft)
27.12.2024 14:00 21,8 °C 1,1 °C 53 % 96 % 1034,2 hPa 0,0 l/m² 3,3 km/h (1 Bft) S 0,30 h 48 W/m² 0,5 °C 1,0 °C 5,1 km/h (1 Bft)
27.12.2024 15:00 21,9 °C 1,0 °C 54 % 96 % 1033,9 hPa 0,0 l/m² 2,9 km/h (1 Bft) S-SO 0,00 h 17 W/m² 0,5 °C 1,0 °C 4,7 km/h (1 Bft)
27.12.2024 16:00 22,1 °C 0,5 °C 55 % 96 % 1033,9 hPa 0,0 l/m² 2,9 km/h (1 Bft) S-SO 0,00 h 0 W/m² -0,1 °C 0,5 °C 4,7 km/h (1 Bft)
27.12.2024 17:00 21,9 °C 0,2 °C 55 % 96 % 1034,0 hPa 0,0 l/m² 1,8 km/h (1 Bft) S 0,00 h 0 W/m² -0,4 °C 0,2 °C 3,3 km/h (1 Bft)
27.12.2024 18:00 21,8 °C -0,1 °C 54 % 96 % 1033,8 hPa 0,0 l/m² 2,6 km/h (1 Bft) S-SO 0,00 h 0 W/m² -0,8 °C -0,1 °C 4,3 km/h (1 Bft)
27.12.2024 19:00 21,7 °C -0,4 °C 54 % 95 % 1033,7 hPa 0,0 l/m² 3,4 km/h (1 Bft) S-SO 0,00 h 0 W/m² -1,1 °C -0,5 °C 5,2 km/h (1 Bft)
27.12.2024 20:00 21,7 °C -0,8 °C 54 % 96 % 1033,6 hPa 0,0 l/m² 6,0 km/h (2 Bft) S 0,00 h 0 W/m² -1,4 °C -1,2 °C 8,2 km/h (2 Bft)
27.12.2024 21:00 21,8 °C -1,3 °C 54 % 95 % 1033,6 hPa 0,0 l/m² 1,1 km/h (1 Bft) S 0,00 h 0 W/m² -1,9 °C -1,3 °C 1,9 km/h (1 Bft)
27.12.2024 22:00 21,8 °C -1,5 °C 53 % 95 % 1033,4 hPa 0,0 l/m² 1,3 km/h (1 Bft) S 0,00 h 0 W/m² -2,2 °C -1,5 °C 2,6 km/h (1 Bft)
27.12.2024 23:00 21,9 °C -1,7 °C 52 % 95 % 1033,1 hPa 0,0 l/m² 2,3 km/h (1 Bft) S 0,00 h 0 W/m² -2,4 °C -1,7 °C 4,2 km/h (1 Bft)
28.12.2024 00:00 21,9 °C -1,9 °C 53 % 96 % 1032,7 hPa 0,0 l/m² 3,6 km/h (1 Bft) S-SO 0,00 h 0 W/m² -2,5 °C -1,9 °C 6,0 km/h (2 Bft)
28.12.2024 01:00 21,8 °C -2,0 °C 53 % 96 % 1032,5 hPa 0,0 l/m² 2,4 km/h (1 Bft) S-SW 0,00 h 0 W/m² -2,6 °C -2,0 °C 4,7 km/h (1 Bft)
28.12.2024 02:00 21,8 °C -2,1 °C 53 % 96 % 1032,3 hPa 0,0 l/m² 2,1 km/h (1 Bft) SO 0,00 h 0 W/m² -2,7 °C -2,1 °C 4,0 km/h (1 Bft)
28.12.2024 03:00 21,8 °C -2,3 °C 53 % 95 % 1032,1 hPa 0,0 l/m² 2,6 km/h (1 Bft) S-SO 0,00 h 0 W/m² -3,0 °C -2,4 °C 4,7 km/h (1 Bft)
28.12.2024 04:00 21,8 °C -2,5 °C 53 % 96 % 1031,7 hPa 0,0 l/m² 3,4 km/h (1 Bft) S-SW 0,00 h 0 W/m² -3,1 °C -2,5 °C 5,7 km/h (2 Bft)
28.12.2024 05:00 21,8 °C -2,8 °C 53 % 95 % 1031,4 hPa 0,0 l/m² 1,7 km/h (1 Bft) S 0,00 h 0 W/m² -3,5 °C -2,8 °C 3,9 km/h (1 Bft)
28.12.2024 06:00 21,8 °C -3,1 °C 53 % 95 % 1031,2 hPa 0,0 l/m² 0,8 km/h (0 Bft) S-SO 0,00 h 0 W/m² -3,8 °C -3,1 °C 2,3 km/h (1 Bft)
28.12.2024 07:00 21,8 °C -3,2 °C 53 % 95 % 1031,3 hPa 0,0 l/m² 0,4 km/h (0 Bft) S-SO 0,00 h 0 W/m² -3,9 °C -3,2 °C 1,4 km/h (1 Bft)
28.12.2024 08:00 21,9 °C -3,3 °C 53 % 95 % 1031,3 hPa 0,0 l/m² 0,1 km/h (0 Bft) S-SO 0,00 h 15 W/m² -4,0 °C -3,3 °C 0,4 km/h (0 Bft)
28.12.2024 09:00 23,1 °C -2,8 °C 51 % 95 % 1031,5 hPa 0,0 l/m² 0,0 km/h (0 Bft) S-SO 0,80 h 83 W/m² -3,5 °C -2,8 °C 0,1 km/h (0 Bft)
28.12.2024 10:00 23,4 °C -1,8 °C 47 % 95 % 1031,4 hPa 0,0 l/m² 0,5 km/h (0 Bft) S-SO 1,00 h 172 W/m² -2,5 °C -1,8 °C 1,6 km/h (1 Bft)
28.12.2024 11:00 23,6 °C -0,4 °C 47 % 93 % 1031,0 hPa 0,0 l/m² 0,1 km/h (0 Bft) S-SO 1,00 h 239 W/m² -1,4 °C -0,4 °C 0,8 km/h (0 Bft)
28.12.2024 12:00 23,2 °C 1,2 °C 49 % 92 % 1030,2 hPa 0,0 l/m² 1,2 km/h (1 Bft) S-SO 1,02 h 255 W/m² -0,0 °C 1,2 °C 3,3 km/h (1 Bft)
28.12.2024 13:00 22,9 °C 2,6 °C 49 % 87 % 1029,8 hPa 0,0 l/m² 0,3 km/h (0 Bft) S-SO 1,00 h 213 W/m² 0,7 °C 2,6 °C 1,1 km/h (1 Bft)
28.12.2024 14:00 22,6 °C 3,2 °C 49 % 85 % 1029,5 hPa 0,0 l/m² 0,2 km/h (0 Bft) S-SO 0,98 h 124 W/m² 0,9 °C 3,2 °C 0,7 km/h (0 Bft)
28.12.2024 15:00 22,3 °C 2,7 °C 50 % 86 % 1029,4 hPa 0,0 l/m² 0,2 km/h (0 Bft) S-SO 0,27 h 34 W/m² 0,6 °C 2,7 °C 0,9 km/h (0 Bft)
28.12.2024 16:00 22,2 °C 0,8 °C 50 % 89 % 1029,2 hPa 0,0 l/m² 0,0 km/h (0 Bft) S-SO 0,00 h 7 W/m² -0,9 °C 0,8 °C 0,0 km/h (0 Bft)
28.12.2024 17:00 22,1 °C -0,8 °C 49 % 90 % 1029,0 hPa 0,0 l/m² 0,0 km/h (0 Bft) S-SO 0,00 h 0 W/m² -2,2 °C -0,8 °C 0,0 km/h (0 Bft)
28.12.2024 18:00 22,1 °C -2,2 °C 50 % 92 % 1029,0 hPa 0,0 l/m² 0,0 km/h (0 Bft) S-SO 0,00 h 0 W/m² -3,3 °C -2,2 °C 0,0 km/h (0 Bft)
28.12.2024 19:00 22,1 °C -3,1 °C 50 % 93 % 1029,0 hPa 0,0 l/m² 0,0 km/h (0 Bft) S-SO 0,00 h 0 W/m² -4,1 °C -3,1 °C 0,0 km/h (0 Bft)
28.12.2024 20:00 22,1 °C -3,5 °C 51 % 93 % 1029,1 hPa 0,0 l/m² 0,0 km/h (0 Bft) S-SO 0,00 h 0 W/m² -4,5 °C -3,5 °C 0,0 km/h (0 Bft)
28.12.2024 21:00 22,2 °C -3,9 °C 51 % 94 % 1028,7 hPa 0,0 l/m² 0,0 km/h (0 Bft) S-SO 0,00 h 0 W/m² -4,7 °C -3,9 °C 0,1 km/h (0 Bft)
28.12.2024 22:00 22,2 °C -3,7 °C 51 % 94 % 1028,3 hPa 0,0 l/m² 0,0 km/h (0 Bft) S-SO 0,00 h 0 W/m² -4,6 °C -3,7 °C 0,0 km/h (0 Bft)
28.12.2024 23:00 22,1 °C -3,7 °C 49 % 94 % 1028,0 hPa 0,0 l/m² 0,1 km/h (0 Bft) S-SO 0,00 h 0 W/m² -4,5 °C -3,7 °C 0,5 km/h (0 Bft)
29.12.2024 00:00 22,1 °C -3,6 °C 49 % 94 % 1027,6 hPa 0,0 l/m² 1,7 km/h (1 Bft) S-SO 0,00 h 0 W/m² -4,4 °C -3,5 °C 3,4 km/h (1 Bft)
29.12.2024 01:00 22,0 °C -3,6 °C 50 % 94 % 1027,3 hPa 0,0 l/m² 0,4 km/h (0 Bft) S-SO 0,00 h 0 W/m² -4,4 °C -3,6 °C 1,4 km/h (1 Bft)
29.12.2024 02:00 22,1 °C -3,7 °C 51 % 94 % 1027,0 hPa 0,0 l/m² 0,1 km/h (0 Bft) S-SO 0,00 h 0 W/m² -4,6 °C -3,7 °C 0,4 km/h (0 Bft)
29.12.2024 03:00 22,1 °C -3,5 °C 51 % 94 % 1026,9 hPa 0,0 l/m² 0,2 km/h (0 Bft) S-SO 0,00 h 0 W/m² -4,3 °C -3,5 °C 0,7 km/h (0 Bft)
29.12.2024 04:00 22,0 °C -3,7 °C 51 % 94 % 1026,8 hPa 0,0 l/m² 0,2 km/h (0 Bft) S-SO 0,00 h 0 W/m² -4,6 °C -3,7 °C 0,5 km/h (0 Bft)
29.12.2024 05:00 22,1 °C -4,1 °C 51 % 94 % 1026,8 hPa 0,0 l/m² 0,0 km/h (0 Bft) S-SO 0,00 h 0 W/m² -5,0 °C -4,1 °C 0,0 km/h (0 Bft)
29.12.2024 06:00 22,1 °C -4,1 °C 51 % 94 % 1026,9 hPa 0,0 l/m² 0,2 km/h (0 Bft) S-SO 0,00 h 0 W/m² -5,0 °C -4,1 °C 0,8 km/h (0 Bft)
29.12.2024 07:00 22,0 °C -4,1 °C 51 % 93 % 1027,0 hPa 0,0 l/m² 0,6 km/h (0 Bft) S-SO 0,00 h 0 W/m² -5,0 °C -4,1 °C 1,6 km/h (1 Bft)
29.12.2024 08:00 22,2 °C -4,0 °C 51 % 93 % 1027,5 hPa 0,0 l/m² 0,9 km/h (0 Bft) S-SO 0,00 h 15 W/m² -4,9 °C -4,0 °C 1,7 km/h (1 Bft)
29.12.2024 09:00 23,7 °C -2,5 °C 47 % 93 % 1028,0 hPa 0,0 l/m² 0,4 km/h (0 Bft) S-SO 0,87 h 107 W/m² -3,4 °C -2,5 °C 1,1 km/h (1 Bft)
29.12.2024 10:00 23,6 °C 0,0 °C 48 % 92 % 1028,3 hPa 0,2 l/m² 0,0 km/h (0 Bft) S-SO 1,00 h 197 W/m² -1,2 °C 0,0 °C 0,0 km/h (0 Bft)
29.12.2024 11:00 23,9 °C 2,3 °C 49 % 86 % 1027,9 hPa 0,0 l/m² 3,5 km/h (1 Bft) S-SO 1,00 h 250 W/m² 0,3 °C 2,3 °C 6,2 km/h (2 Bft)
29.12.2024 12:00 23,9 °C 3,9 °C 49 % 81 % 1027,8 hPa 0,0 l/m² 6,2 km/h (2 Bft) W-SW 0,98 h 251 W/m² 1,0 °C 3,2 °C 9,6 km/h (2 Bft)
29.12.2024 13:00 23,7 °C 3,5 °C 50 % 83 % 1028,0 hPa 0,0 l/m² 8,1 km/h (2 Bft) NW 1,00 h 202 W/m² 0,8 °C 1,6 °C 13,4 km/h (3 Bft)
29.12.2024 14:00 23,3 °C 2,2 °C 49 % 87 % 1028,1 hPa 0,0 l/m² 5,2 km/h (1 Bft) N 1,00 h 118 W/m² 0,2 °C 1,8 °C 8,7 km/h (2 Bft)
29.12.2024 15:00 22,9 °C 1,1 °C 49 % 89 % 1028,4 hPa 0,0 l/m² 3,4 km/h (1 Bft) N-NW 0,00 h 20 W/m² -0,5 °C 1,1 °C 5,5 km/h (2 Bft)
29.12.2024 16:00 22,7 °C 0,8 °C 50 % 91 % 1029,0 hPa 0,0 l/m² 0,3 km/h (0 Bft) SO 0,00 h 0 W/m² -0,6 °C 0,8 °C 0,8 km/h (0 Bft)
29.12.2024 17:00 22,5 °C 0,5 °C 50 % 92 % 1029,2 hPa 0,0 l/m² 2,2 km/h (1 Bft) SO 0,00 h 0 W/m² -0,6 °C 0,5 °C 3,7 km/h (1 Bft)
29.12.2024 18:00 22,3 °C 0,5 °C 49 % 91 % 1029,3 hPa 0,0 l/m² 8,6 km/h (2 Bft) S-SW 0,00 h 0 W/m² -0,8 °C -1,8 °C 11,2 km/h (2 Bft)
29.12.2024 19:00 22,2 °C 0,3 °C 50 % 91 % 1029,4 hPa 0,0 l/m² 11,6 km/h (2 Bft) S-SW 0,00 h 0 W/m² -1,0 °C -4,2 °C 15,2 km/h (3 Bft)
29.12.2024 20:00 22,3 °C 0,5 °C 51 % 91 % 1029,5 hPa 0,0 l/m² 10,1 km/h (2 Bft) SW 0,00 h 0 W/m² -0,8 °C -2,9 °C 14,1 km/h (3 Bft)
29.12.2024 21:00 22,6 °C 0,6 °C 52 % 91 % 1029,6 hPa 0,0 l/m² 13,7 km/h (3 Bft) SW 0,00 h 0 W/m² -0,7 °C -5,4 °C 17,7 km/h (3 Bft)
29.12.2024 22:00 22,4 °C 0,7 °C 49 % 91 % 1029,9 hPa 0,0 l/m² 13,0 km/h (3 Bft) SW 0,00 h 0 W/m² -0,6 °C -4,8 °C 17,6 km/h (3 Bft)
29.12.2024 23:00 22,1 °C 0,4 °C 49 % 92 % 1030,1 hPa 0,0 l/m² 14,2 km/h (3 Bft) SW 0,00 h 0 W/m² -0,8 °C -5,9 °C 18,6 km/h (3 Bft)
Min-Datum _ 23.12.24 29.12.24 29.12.24 29.12.24 23.12.24 - 29.12.24 - - - 29.12.24 29.12.24 29.12.24
_ Min-Zeit 18:24 07:07 14:39 13:05 00:00 - 17:03 - - - 07:07 21:36 17:08
Minimum _ 21,3 °C -4,4 °C 46 % 80 % 1002,3 hPa - 0,0 km/h (0 Bft) - - - -5,4 °C -8,5 °C 0,0 km/h (0 Bft)
Max-Datum _ 29.12.24 25.12.24 25.12.24 28.12.24 26.12.24 29.12.24 23.12.24 - 29.12.24 25.12.24 25.12.24 25.12.24 23.12.24
_ Max-Zeit 09:15 13:48 08:34 06:43 10:22 10:19 17:37 - 14:53 12:01 13:46 13:55 19:33
Maximum _ 24,6 °C 7,6 °C 58 % 96 % 1039,1 hPa 0,2 l/m² 26,9 km/h
W-SW (4 Bft)
- 0,05 h 315 W/m² 5,6 °C 7,6 °C 40,2 km/h
W (6 Bft)
Durchschnitt _ 22,3 °C 1,8 °C 53 % 91 % 1028,6 hPa #0,6 l/m² 5,1 km/h (1 Bft) SW #32:41 h 31 W/m² 0,6 °C 0,5 °C 7,5 km/h (2 Bft)
© 2009 Mathias Hoßbach